Time;durP1;ratioP1;P1;durP2;ratioP2;P2;SDS_P1;SDS_P2;PMS_P1;PMS_P2;Temp;Humidity;BMP_temperature;BMP_pressure;BME280_temperature;BME280_humidity;BME280_pressure;Samples;Min_cycle;Max_cycle;Signal;HPM_P1;HPM_P2
2021/08/04 00:00:37;;;;;;;14.27;8.05;;;;;;;26.18;54.60;99858.59;5088287;28;20055;-21
2021/08/04 00:03:03;;;;;;;12.05;8.85;;;;;;;26.09;55.02;99863.28;5087899;28;20097;-21
2021/08/04 00:05:28;;;;;;;12.63;7.80;;;;;;;26.21;55.25;99866.13;5069817;28;20024;-21
2021/08/04 00:07:53;;;;;;;14.45;7.97;;;;;;;26.05;55.37;99853.03;5088032;28;20108;-21
2021/08/04 00:10:19;;;;;;;18.75;8.88;;;;;;;26.05;55.50;99850.31;5088123;28;20028;-22
2021/08/04 00:12:45;;;;;;;12.02;8.10;;;;;;;25.96;56.24;99854.97;5087873;28;20517;-22
2021/08/04 00:15:11;;;;;;;13.82;7.88;;;;;;;25.82;56.82;99851.63;5087807;28;20066;-23
2021/08/04 00:17:37;;;;;;;17.67;8.43;;;;;;;25.70;57.26;99843.31;5087710;28;20020;-21
2021/08/04 00:20:04;;;;;;;13.15;8.45;;;;;;;25.88;57.93;99860.47;5087801;28;20035;-21
2021/08/04 00:22:29;;;;;;;16.27;8.48;;;;;;;25.96;57.96;99854.97;5087835;28;20024;-22
2021/08/04 00:24:55;;;;;;;12.90;8.73;;;;;;;25.83;58.26;99855.97;5087621;28;20415;-22
2021/08/04 00:27:20;;;;;;;17.77;9.23;;;;;;;25.99;58.13;99868.00;5087332;28;20028;-21
2021/08/04 00:29:46;;;;;;;13.98;8.40;;;;;;;25.81;58.63;99875.41;5087538;28;20048;-21
2021/08/04 00:32:11;;;;;;;14.68;8.70;;;;;;;25.70;59.25;99873.34;5087525;28;20101;-21
2021/08/04 00:34:37;;;;;;;12.23;8.48;;;;;;;25.44;60.27;99861.38;5087496;28;20032;-21
2021/08/04 00:37:02;;;;;;;14.60;9.07;;;;;;;25.41;60.52;99855.75;5087215;28;20464;-22
2021/08/04 00:39:28;;;;;;;14.55;9.43;;;;;;;25.43;60.54;99853.50;5069564;28;20025;-21
2021/08/04 00:41:53;;;;;;;11.73;8.73;;;;;;;25.42;60.77;99860.88;5087477;28;20032;-21
2021/08/04 00:44:19;;;;;;;16.90;9.40;;;;;;;25.38;61.19;99854.47;5087348;28;20039;-21
2021/08/04 00:46:45;;;;;;;14.98;9.27;;;;;;;25.34;61.26;99844.53;5087247;28;20024;-21
2021/08/04 00:49:11;;;;;;;15.02;9.57;;;;;;;25.35;61.27;99846.13;5069243;28;20032;-22
2021/08/04 00:51:37;;;;;;;15.60;8.80;;;;;;;25.26;61.64;99857.06;5087026;28;20115;-21
2021/08/04 00:54:04;;;;;;;13.45;8.98;;;;;;;25.08;62.64;99842.56;5087314;28;20427;-21
2021/08/04 00:56:29;;;;;;;15.55;9.38;;;;;;;25.11;62.39;99841.94;5087210;28;20468;-21
2021/08/04 00:58:55;;;;;;;15.88;9.45;;;;;;;25.22;62.23;99865.06;5087095;28;20036;-21
2021/08/04 01:01:22;;;;;;;14.90;9.50;;;;;;;25.15;62.30;99845.63;5069007;28;20028;-22
2021/08/04 01:04:12;;;;;;;12.02;9.05;;;;;;;25.18;62.40;99861.34;5087243;28;20480;-21
2021/08/04 01:06:46;;;;;;;15.55;8.77;;;;;;;25.24;62.52;99862.03;5075963;28;20074;-21
2021/08/04 01:09:12;;;;;;;15.10;10.10;;;;;;;24.95;63.30;99846.28;5052401;28;20047;-21
2021/08/04 01:11:39;;;;;;;13.18;9.27;;;;;;;25.02;63.17;99849.31;5068838;28;20043;-21
2021/08/04 01:14:11;;;;;;;17.23;9.93;;;;;;;24.93;64.11;99851.22;5087020;28;20032;-21
2021/08/04 01:16:38;;;;;;;14.52;9.70;;;;;;;24.97;64.32;99874.03;5052561;28;20054;-22
2021/08/04 01:19:15;;;;;;;15.27;9.83;;;;;;;25.02;63.97;99857.50;5068932;28;20020;-21
2021/08/04 01:21:56;;;;;;;14.32;9.68;;;;;;;25.05;64.05;99871.31;5069365;28;20067;-21
2021/08/04 01:24:27;;;;;;;15.93;9.88;;;;;;;24.91;64.97;99870.66;5053283;28;20478;-22
2021/08/04 01:26:53;;;;;;;14.93;9.52;;;;;;;24.76;65.05;99847.38;5090866;28;20040;-21
2021/08/04 01:29:19;;;;;;;12.10;9.63;;;;;;;24.82;65.73;99867.13;5090326;28;20048;-21
2021/08/04 01:31:45;;;;;;;15.73;9.93;;;;;;;24.82;65.50;99857.00;5091061;28;20028;-21
2021/08/04 01:34:11;;;;;;;16.38;9.52;;;;;;;24.80;65.88;99861.16;5090960;28;20500;-22
2021/08/04 01:36:36;;;;;;;27.33;10.10;;;;;;;24.76;65.77;99858.28;5090988;28;20052;-22
2021/08/04 01:39:03;;;;;;;14.85;8.95;;;;;;;24.71;65.77;99849.47;5072396;28;20472;-21
2021/08/04 01:41:28;;;;;;;15.20;9.52;;;;;;;24.82;65.91;99867.91;5090619;28;20024;-22
2021/08/04 01:43:54;;;;;;;15.13;9.50;;;;;;;24.50;66.65;99850.06;5056025;28;20035;-22
2021/08/04 01:46:20;;;;;;;15.57;9.55;;;;;;;24.77;66.25;99870.00;5090856;28;20025;-21
2021/08/04 01:48:45;;;;;;;14.70;10.07;;;;;;;24.65;67.01;99867.91;5055868;28;20082;-22
2021/08/04 01:51:12;;;;;;;13.95;9.40;;;;;;;24.63;66.88;99853.78;5055621;28;20028;-22
2021/08/04 01:53:38;;;;;;;17.77;9.98;;;;;;;24.66;67.27;99869.47;5090827;28;20115;-22
2021/08/04 01:56:04;;;;;;;13.65;10.60;;;;;;;24.59;66.91;99847.34;5072366;28;20024;-21
2021/08/04 01:58:30;;;;;;;12.63;9.85;;;;;;;24.99;66.11;99883.50;5090658;28;20518;-22
2021/08/04 02:00:55;;;;;;;16.70;9.48;;;;;;;25.02;66.10;99887.50;5090442;28;20030;-22
2021/08/04 02:03:21;;;;;;;14.55;10.68;;;;;;;24.81;67.42;99885.41;5090068;28;20028;-22
2021/08/04 02:05:47;;;;;;;16.65;9.63;;;;;;;25.05;66.36;99890.41;5090444;28;20513;-22
2021/08/04 02:08:32;;;;;;;14.05;9.63;;;;;;;24.71;67.92;99896.63;5090282;28;20024;-21
2021/08/04 02:11:09;;;;;;;16.83;9.88;;;;;;;24.50;68.46;99876.50;5089761;28;20449;-21
2021/08/04 02:13:37;;;;;;;18.85;10.68;;;;;;;24.57;68.39;99879.59;5056437;28;20093;-22
2021/08/04 02:16:14;;;;;;;16.92;10.50;;;;;;;24.57;68.96;99885.03;5055201;28;20418;-22
2021/08/04 02:18:42;;;;;;;15.60;10.90;;;;;;;24.45;68.78;99870.06;5072278;28;20096;-22
2021/08/04 02:21:07;;;;;;;14.35;10.25;;;;;;;24.57;68.95;99893.22;5038537;28;20326;-22
2021/08/04 02:23:36;;;;;;;17.10;10.30;;;;;;;24.57;69.31;99893.22;5071871;28;20036;-22
2021/08/04 02:26:14;;;;;;;16.08;10.60;;;;;;;24.65;69.23;99892.44;5055297;28;20093;-21
2021/08/04 02:28:41;;;;;;;19.30;10.52;;;;;;;24.74;68.96;99897.91;5089873;28;20207;-21
2021/08/04 02:31:08;;;;;;;17.57;11.00;;;;;;;24.87;68.38;99902.44;5071701;28;20789;-21
2021/08/04 02:33:34;;;;;;;15.52;11.43;;;;;;;24.60;69.89;99914.38;5072094;28;20028;-21
2021/08/04 02:35:59;;;;;;;16.92;11.43;;;;;;;24.72;69.49;99916.50;5054175;28;20048;-22
2021/08/04 02:38:25;;;;;;;16.48;11.23;;;;;;;24.62;69.73;99910.25;5038226;28;20062;-21
2021/08/04 02:40:50;;;;;;;14.85;11.38;;;;;;;24.65;70.26;99917.78;5089848;28;20415;-21
2021/08/04 02:43:16;;;;;;;17.67;11.80;;;;;;;24.95;69.00;99930.84;5071152;28;20496;-21
2021/08/04 02:45:42;;;;;;;18.23;11.43;;;;;;;25.38;67.63;99941.03;5054855;28;20113;-21
2021/08/04 02:48:07;;;;;;;21.05;11.98;;;;;;;25.28;67.57;99949.53;5071295;28;20104;-21
2021/08/04 02:50:34;;;;;;;17.42;12.07;;;;;;;25.23;68.36;99947.75;5089868;28;20469;-22
2021/08/04 02:53:00;;;;;;;17.63;11.57;;;;;;;25.11;68.27;99944.81;5054504;28;20480;-21
2021/08/04 02:55:25;;;;;;;14.57;11.65;;;;;;;24.81;69.83;99950.84;5071289;28;20042;-21
2021/08/04 02:57:51;;;;;;;21.65;12.77;;;;;;;25.00;69.01;99955.22;5070948;28;20028;-21
2021/08/04 03:00:16;;;;;;;16.45;11.82;;;;;;;24.95;69.40;99979.94;5089623;28;20428;-21
2021/08/04 03:02:42;;;;;;;39.08;13.98;;;;;;;25.00;69.00;99982.50;5089332;28;20032;-22
2021/08/04 03:05:08;;;;;;;17.70;11.93;;;;;;;24.89;69.32;99982.00;5089071;28;20032;-21
2021/08/04 03:07:33;;;;;;;18.20;12.07;;;;;;;25.15;68.39;99984.81;5089128;28;20495;-21
2021/08/04 03:09:59;;;;;;;17.42;12.15;;;;;;;25.37;67.82;99992.06;5089300;28;20043;-21
2021/08/04 03:12:24;;;;;;;21.60;12.80;;;;;;;25.39;67.52;99999.94;5089113;28;20040;-21
2021/08/04 03:14:50;;;;;;;20.33;12.90;;;;;;;25.47;67.53;100007.34;5089110;28;20110;-21
2021/08/04 03:17:15;;;;;;;17.95;12.18;;;;;;;25.48;66.87;99997.22;5088713;28;20032;-21
2021/08/04 03:19:40;;;;;;;22.77;13.02;;;;;;;25.17;68.63;100009.84;5088696;28;20040;-22
2021/08/04 03:22:06;;;;;;;17.17;11.82;;;;;;;25.37;67.00;100005.72;5088955;28;20032;-22
2021/08/04 03:24:31;;;;;;;16.48;12.38;;;;;;;25.54;66.52;100012.31;5088780;28;20044;-21
2021/08/04 03:26:57;;;;;;;26.45;13.43;;;;;;;25.92;64.79;100028.09;5088450;28;20066;-21
2021/08/04 03:29:22;;;;;;;20.55;12.77;;;;;;;25.95;63.92;100032.91;5088702;28;20435;-21
2021/08/04 03:31:48;;;;;;;19.67;12.57;;;;;;;25.95;63.46;100021.97;5088506;28;20024;-22
2021/08/04 03:34:13;;;;;;;25.58;13.10;;;;;;;25.56;64.59;100012.78;5088002;28;20089;-22
2021/08/04 03:36:39;;;;;;;19.50;12.13;;;;;;;25.69;64.01;100024.69;5088459;28;20028;-21
2021/08/04 03:39:04;;;;;;;17.30;13.38;;;;;;;25.75;63.32;100026.16;5088275;28;20089;-21
2021/08/04 03:41:30;;;;;;;20.35;12.65;;;;;;;25.73;63.22;100025.66;5088385;28;20503;-22
2021/08/04 03:43:55;;;;;;;19.35;12.55;;;;;;;25.48;64.39;100021.78;5088645;28;20055;-21
2021/08/04 03:46:20;;;;;;;18.02;11.88;;;;;;;24.89;66.08;100012.00;5088484;28;20028;-21
2021/08/04 03:48:46;;;;;;;18.60;13.77;;;;;;;24.57;67.01;100024.06;5087849;28;20039;-21
2021/08/04 03:51:12;;;;;;;16.30;12.68;;;;;;;24.53;66.55;100012.19;5088092;28;20028;-22
2021/08/04 03:53:37;;;;;;;20.98;13.07;;;;;;;24.41;67.63;100020.91;5088173;28;20484;-22
2021/08/04 03:56:03;;;;;;;19.83;13.15;;;;;;;24.11;68.22;100017.03;5088327;28;20035;-21
2021/08/04 03:58:28;;;;;;;19.38;11.65;;;;;;;24.24;68.13;100021.63;5088141;28;20020;-22
2021/08/04 04:00:54;;;;;;;17.20;12.07;;;;;;;24.29;67.69;100029.66;5088107;28;20035;-21
2021/08/04 04:03:19;;;;;;;18.27;11.52;;;;;;;24.72;65.40;100040.00;5087928;28;20064;-21
2021/08/04 04:05:45;;;;;;;17.90;11.73;;;;;;;24.72;63.82;100031.81;5088015;28;20055;-21
2021/08/04 04:08:10;;;;;;;16.35;11.95;;;;;;;24.74;64.00;100045.16;5088129;28;20031;-22
2021/08/04 04:10:36;;;;;;;18.38;11.18;;;;;;;24.82;63.06;100041.66;5088319;28;21022;-21
2021/08/04 04:13:01;;;;;;;13.80;11.27;;;;;;;24.63;63.57;100047.34;5087589;28;20093;-22
2021/08/04 04:15:27;;;;;;;16.40;11.55;;;;;;;24.83;61.78;100049.53;5087839;28;20035;-22
2021/08/04 04:17:52;;;;;;;18.52;11.95;;;;;;;25.11;61.35;100052.06;5087793;28;20040;-21
2021/08/04 04:20:18;;;;;;;16.20;11.57;;;;;;;25.29;60.56;100061.09;5088012;28;20725;-21
2021/08/04 04:22:44;;;;;;;17.77;12.05;;;;;;;25.48;59.56;100062.72;5088122;28;20070;-22
2021/08/04 04:25:13;;;;;;;17.67;11.35;;;;;;;25.95;57.92;100061.03;5087305;28;20081;-21
2021/08/04 04:27:40;;;;;;;13.75;11.32;;;;;;;25.61;58.61;100046.22;5088007;28;20080;-22
2021/08/04 04:30:06;;;;;;;17.92;11.68;;;;;;;25.66;59.29;100059.72;5087453;28;20055;-22
2021/08/04 04:32:32;;;;;;;18.45;11.68;;;;;;;25.18;59.75;100040.66;5087396;28;20024;-21
2021/08/04 04:34:57;;;;;;;18.98;12.15;;;;;;;24.86;61.35;100037.97;5087648;28;20038;-21
2021/08/04 04:37:22;;;;;;;16.60;11.52;;;;;;;24.88;61.79;100055.97;5087451;28;20028;-22
2021/08/04 04:39:48;;;;;;;18.20;11.38;;;;;;;24.79;61.34;100075.03;5087370;28;20093;-22
2021/08/04 04:42:13;;;;;;;15.88;11.90;;;;;;;24.86;61.20;100070.72;5087708;28;20377;-21
2021/08/04 04:44:39;;;;;;;14.52;11.05;;;;;;;24.98;61.06;100066.59;5087328;28;20028;-21
2021/08/04 04:47:04;;;;;;;16.55;11.23;;;;;;;24.97;60.73;100065.00;5087066;28;20032;-22
2021/08/04 04:49:30;;;;;;;18.30;11.25;;;;;;;24.95;61.98;100083.59;5087391;28;20028;-21
2021/08/04 04:51:55;;;;;;;18.58;12.40;;;;;;;25.23;60.70;100074.09;5087749;28;20077;-21
2021/08/04 04:54:21;;;;;;;18.48;12.27;;;;;;;25.19;60.08;100078.56;5087254;28;20040;-21
2021/08/04 04:56:46;;;;;;;17.65;11.70;;;;;;;25.01;60.89;100093.25;5086411;28;20028;-21
2021/08/04 04:59:12;;;;;;;18.25;12.63;;;;;;;25.01;59.98;100087.81;5086209;28;20105;-21
2021/08/04 05:01:37;;;;;;;18.65;11.70;;;;;;;25.17;59.67;100089.00;5087301;28;20032;-22
2021/08/04 05:04:03;;;;;;;19.35;11.40;;;;;;;25.00;60.08;100083.44;5087111;28;20032;-22
2021/08/04 05:06:30;;;;;;;19.25;11.18;;;;;;;24.85;60.16;100077.28;5086926;28;20032;-22
2021/08/04 05:08:55;;;;;;;16.98;11.73;;;;;;;24.62;61.43;100081.19;5086940;28;20036;-21
2021/08/04 05:11:21;;;;;;;21.88;12.70;;;;;;;25.38;58.72;100074.78;5086776;28;20035;-21
2021/08/04 05:13:46;;;;;;;18.58;12.05;;;;;;;26.02;57.69;100088.66;5087128;28;20039;-21
2021/08/04 05:16:12;;;;;;;18.80;11.70;;;;;;;25.85;57.77;100078.53;5086914;28;20032;-22
2021/08/04 05:18:37;;;;;;;17.92;12.00;;;;;;;25.99;57.59;100083.88;5087083;28;20464;-21
2021/08/04 05:21:03;;;;;;;18.92;12.02;;;;;;;25.63;58.80;100098.59;5086979;28;20032;-22
2021/08/04 05:23:28;;;;;;;18.23;11.23;;;;;;;25.97;57.47;100107.16;5087305;28;20074;-21
2021/08/04 05:25:54;;;;;;;19.88;11.73;;;;;;;25.41;60.15;100102.22;5086824;28;20036;-22
2021/08/04 05:28:19;;;;;;;15.38;11.68;;;;;;;25.78;58.70;100089.09;5087002;28;20063;-22
2021/08/04 05:30:44;;;;;;;18.15;12.52;;;;;;;25.85;59.53;100110.50;5086700;28;20090;-21
2021/08/04 05:33:10;;;;;;;20.70;12.60;;;;;;;25.81;59.87;100109.53;5086593;28;20036;-22
2021/08/04 05:35:35;;;;;;;18.00;14.23;;;;;;;25.82;60.44;100105.66;5086895;28;20480;-21
2021/08/04 05:38:01;;;;;;;20.45;13.63;;;;;;;26.30;59.54;100109.41;5086726;28;20032;-22
2021/08/04 05:40:26;;;;;;;22.23;15.13;;;;;;;26.42;59.74;100101.34;5068693;28;20039;-22
2021/08/04 05:42:52;;;;;;;23.63;16.40;;;;;;;26.60;59.27;100113.06;5086936;28;20032;-22
2021/08/04 05:45:17;;;;;;;21.95;15.38;;;;;;;26.81;59.88;100108.50;5086277;28;20039;-22
2021/08/04 05:47:43;;;;;;;26.90;16.55;;;;;;;26.41;62.38;100111.47;5086742;28;20032;-21
2021/08/04 05:50:09;;;;;;;21.23;16.83;;;;;;;26.46;62.73;100114.03;5086832;28;20038;-22
2021/08/04 05:52:35;;;;;;;23.52;18.15;;;;;;;26.26;63.20;100114.72;5086696;28;20051;-21
2021/08/04 05:55:00;;;;;;;27.80;18.27;;;;;;;26.35;64.08;100117.44;5086315;28;20032;-21
2021/08/04 05:57:26;;;;;;;25.00;17.23;;;;;;;26.75;62.09;100117.22;5086544;28;20062;-22
2021/08/04 05:59:51;;;;;;;19.60;16.00;;;;;;;26.97;60.77;100116.16;5086220;28;20419;-22
2021/08/04 06:02:16;;;;;;;23.38;16.55;;;;;;;26.84;60.07;100107.84;5086957;28;20036;-21
2021/08/04 06:04:42;;;;;;;24.40;15.45;;;;;;;27.02;59.55;100114.06;5086817;28;20035;-22
2021/08/04 06:07:07;;;;;;;21.98;16.63;;;;;;;27.15;60.33;100122.38;5086263;28;20403;-22
2021/08/04 06:09:33;;;;;;;22.50;16.83;;;;;;;27.22;60.04;100122.69;5086538;28;20043;-21
2021/08/04 06:11:58;;;;;;;23.40;15.95;;;;;;;27.56;58.85;100126.38;5089587;28;20036;-21
2021/08/04 06:14:24;;;;;;;22.15;15.50;;;;;;;27.54;59.96;100123.97;5089824;28;20104;-21
2021/08/04 06:16:49;;;;;;;19.73;15.82;;;;;;;27.79;58.42;100113.19;5089829;28;20028;-21
2021/08/04 06:19:15;;;;;;;23.30;16.33;;;;;;;27.69;58.76;100102.63;5089709;28;20043;-22
2021/08/04 06:21:40;;;;;;;23.98;16.65;;;;;;;27.70;61.01;100115.19;5089939;28;20032;-21
2021/08/04 06:24:06;;;;;;;22.67;16.63;;;;;;;27.95;59.80;100116.97;5089906;28;20039;-22
2021/08/04 06:26:31;;;;;;;23.45;18.63;;;;;;;28.01;60.06;100123.84;5089941;28;20560;-21
2021/08/04 06:28:57;;;;;;;19.55;17.17;;;;;;;27.80;60.95;100120.25;5089375;28;20059;-21
2021/08/04 06:31:22;;;;;;;25.48;18.60;;;;;;;27.38;62.62;100123.75;5089853;28;20047;-21
2021/08/04 06:33:48;;;;;;;25.02;17.20;;;;;;;27.44;61.32;100124.34;5090018;28;20036;-21
2021/08/04 06:36:13;;;;;;;22.48;16.67;;;;;;;27.34;60.35;100124.72;5089916;28;20032;-21
2021/08/04 06:38:39;;;;;;;23.58;18.02;;;;;;;27.81;58.94;100116.41;5071971;28;20038;-22
2021/08/04 06:41:04;;;;;;;20.98;17.48;;;;;;;28.31;58.45;100118.25;5089316;28;20032;-21
2021/08/04 06:43:30;;;;;;;25.58;17.80;;;;;;;28.11;59.18;100119.88;5089753;28;20499;-21
2021/08/04 06:45:55;;;;;;;21.70;16.75;;;;;;;28.08;56.93;100109.59;5089852;28;20036;-21
2021/08/04 06:48:20;;;;;;;22.25;16.45;;;;;;;27.96;58.81;100112.28;5089493;28;20016;-21
2021/08/04 06:50:46;;;;;;;20.85;16.90;;;;;;;28.11;59.28;100113.59;5089453;28;20043;-21
2021/08/04 06:53:11;;;;;;;19.00;17.00;;;;;;;27.98;58.29;100102.56;5088891;28;20032;-21
2021/08/04 06:55:37;;;;;;;24.83;17.17;;;;;;;28.33;56.99;100105.00;5089366;28;20060;-21
2021/08/04 06:58:03;;;;;;;28.42;17.45;;;;;;;28.58;57.29;100099.63;5088086;28;20040;-21
2021/08/04 07:00:28;;;;;;;23.10;16.10;;;;;;;28.61;56.53;100105.22;5089146;28;20038;-21
2021/08/04 07:02:54;;;;;;;20.88;17.67;;;;;;;28.32;58.79;100092.44;5089126;28;20032;-21
2021/08/04 07:05:19;;;;;;;24.92;19.38;;;;;;;28.73;57.31;100109.13;5089109;28;20484;-21
2021/08/04 07:07:45;;;;;;;21.40;15.48;;;;;;;28.60;57.97;100103.63;5089202;28;20020;-21
2021/08/04 07:10:11;;;;;;;21.65;15.40;;;;;;;29.25;54.86;100106.56;5089110;28;20039;-21
2021/08/04 07:12:36;;;;;;;20.50;16.08;;;;;;;29.58;52.61;100111.13;5089260;28;20035;-21
2021/08/04 07:15:02;;;;;;;18.17;15.00;;;;;;;29.92;52.29;100100.78;5088083;28;20028;-21
2021/08/04 07:17:28;;;;;;;23.95;18.70;;;;;;;29.92;52.75;100095.28;5088522;28;20027;-21
2021/08/04 07:19:53;;;;;;;19.83;16.08;;;;;;;29.79;53.58;100085.44;5088204;28;20067;-21
2021/08/04 07:22:19;;;;;;;19.02;15.60;;;;;;;29.59;53.30;100099.00;5087853;28;20024;-21
2021/08/04 07:24:44;;;;;;;22.25;15.95;;;;;;;29.57;53.10;100084.81;5087524;28;20032;-22
2021/08/04 07:27:10;;;;;;;18.48;15.52;;;;;;;29.49;54.18;100099.47;5088365;28;20024;-21
2021/08/04 07:29:35;;;;;;;18.55;14.98;;;;;;;29.72;52.97;100090.75;5088043;28;20109;-21
2021/08/04 07:32:01;;;;;;;20.25;15.48;;;;;;;29.55;52.58;100098.09;5088352;28;20028;-21
2021/08/04 07:34:26;;;;;;;17.98;15.13;;;;;;;29.73;52.37;100090.41;5087279;28;20110;-21
2021/08/04 07:36:52;;;;;;;18.02;15.02;;;;;;;30.26;51.83;100104.09;5088451;28;20016;-21
2021/08/04 07:39:18;;;;;;;18.27;15.18;;;;;;;30.11;51.96;100091.06;5087989;28;20110;-21
2021/08/04 07:41:45;;;;;;;18.55;15.35;;;;;;;30.58;50.09;100093.16;5088093;28;20051;-21
2021/08/04 07:44:10;;;;;;;21.10;15.18;;;;;;;30.85;50.81;100102.47;5087915;28;20028;-21
2021/08/04 07:46:35;;;;;;;20.27;15.18;;;;;;;30.42;50.20;100093.94;5088281;28;20051;-21
2021/08/04 07:49:01;;;;;;;17.58;15.75;;;;;;;30.34;50.22;100097.66;5088439;28;20047;-21
2021/08/04 07:51:26;;;;;;;19.23;14.57;;;;;;;30.45;49.77;100089.69;5088271;28;20028;-21
2021/08/04 07:53:52;;;;;;;17.75;14.77;;;;;;;30.32;49.26;100080.69;5087638;28;20032;-21
2021/08/04 07:56:22;;;;;;;21.15;14.20;;;;;;;30.51;49.73;100101.22;5088073;28;20036;-21
2021/08/04 07:58:48;;;;;;;21.50;14.75;;;;;;;30.75;47.47;100101.06;5088072;28;20118;-21
2021/08/04 08:01:13;;;;;;;20.17;15.30;;;;;;;31.12;48.39;100100.84;5067601;28;20115;-21
2021/08/04 08:03:39;;;;;;;19.15;15.05;;;;;;;31.27;48.95;100081.88;5080361;28;20412;-21
2021/08/04 08:06:04;;;;;;;19.52;15.32;;;;;;;31.73;46.49;100096.72;5088386;28;20047;-21
2021/08/04 08:08:30;;;;;;;18.33;13.60;;;;;;;31.46;46.13;100092.97;5088355;28;20125;-21
2021/08/04 08:10:56;;;;;;;17.70;14.25;;;;;;;31.12;47.18;100084.31;5087746;28;20093;-21
2021/08/04 08:13:21;;;;;;;18.40;14.52;;;;;;;31.44;47.48;100078.75;5086189;28;20035;-21
2021/08/04 08:15:48;;;;;;;17.45;15.13;;;;;;;31.31;45.70;100071.75;5085990;28;20062;-21
2021/08/04 08:18:13;;;;;;;16.13;13.60;;;;;;;31.19;46.09;100084.47;5085811;28;20038;-21
2021/08/04 08:20:40;;;;;;;14.90;12.70;;;;;;;31.19;44.65;100076.19;5085733;28;20415;-21
2021/08/04 08:23:05;;;;;;;15.95;12.25;;;;;;;31.30;43.76;100086.66;5086460;28;20071;-21
2021/08/04 08:25:31;;;;;;;18.80;12.65;;;;;;;31.60;43.59;100076.72;5087472;28;20093;-21
2021/08/04 08:27:56;;;;;;;14.30;12.68;;;;;;;31.27;47.12;100062.59;5087429;28;20028;-21
2021/08/04 08:30:22;;;;;;;16.95;12.77;;;;;;;31.21;47.81;100068.38;5087319;28;20525;-21
2021/08/04 08:32:48;;;;;;;15.68;13.40;;;;;;;31.24;46.88;100064.91;5087124;28;20044;-21
2021/08/04 08:35:14;;;;;;;14.18;12.05;;;;;;;31.60;45.58;100051.94;5086277;28;20044;-21
2021/08/04 08:37:40;;;;;;;17.52;11.82;;;;;;;32.19;43.75;100051.94;5087542;28;20039;-22
2021/08/04 08:40:06;;;;;;;16.17;11.35;;;;;;;32.51;42.07;100035.97;5087238;28;20028;-22
2021/08/04 08:42:31;;;;;;;14.25;11.13;;;;;;;32.81;41.67;100047.13;5087120;28;20028;-21
2021/08/04 08:44:58;;;;;;;17.00;12.57;;;;;;;32.62;42.32;100039.72;5085057;28;20057;-21
2021/08/04 08:47:23;;;;;;;14.30;12.20;;;;;;;32.81;41.80;100049.88;5084511;28;20051;-21
2021/08/04 08:49:49;;;;;;;15.05;11.65;;;;;;;33.07;40.63;100017.91;5085983;28;20027;-21
2021/08/04 08:52:15;;;;;;;13.77;9.52;;;;;;;33.11;37.72;100040.91;5068002;28;20032;-21
2021/08/04 08:54:40;;;;;;;15.20;9.73;;;;;;;33.06;38.41;100038.44;5085796;28;20023;-21
2021/08/04 08:57:06;;;;;;;11.88;9.85;;;;;;;32.65;38.71;100034.63;5067420;28;20032;-21
2021/08/04 08:59:31;;;;;;;13.88;9.27;;;;;;;32.85;38.50;100032.56;5087104;28;20024;-21
2021/08/04 09:01:57;;;;;;;14.63;10.10;;;;;;;32.77;37.69;100026.94;5087186;28;20032;-21
2021/08/04 09:04:22;;;;;;;13.85;10.10;;;;;;;32.77;37.78;100034.41;5087342;28;20035;-21
2021/08/04 09:06:59;;;;;;;14.75;10.32;;;;;;;32.72;39.46;100026.47;5087007;28;20039;-21
2021/08/04 09:09:33;;;;;;;13.02;10.00;;;;;;;32.85;38.82;100016.00;5087366;28;20166;-21
2021/08/04 09:12:02;;;;;;;18.90;9.75;;;;;;;33.12;37.72;100019.59;5087287;28;20032;-21
2021/08/04 09:14:28;;;;;;;14.60;9.35;;;;;;;33.35;36.16;100008.47;5087278;28;20036;-21
2021/08/04 09:17:05;;;;;;;25.52;9.23;;;;;;;33.66;35.51;100000.97;5087184;28;20530;-21
2021/08/04 09:19:32;;;;;;;17.70;9.85;;;;;;;33.60;34.67;100001.28;5087062;28;20508;-21
2021/08/04 09:22:04;;;;;;;13.70;9.73;;;;;;;33.51;34.77;100009.06;5087104;28;20035;-21
2021/08/04 09:24:29;;;;;;;14.13;9.30;;;;;;;33.56;35.54;99997.66;5086942;28;20403;-21
2021/08/04 09:26:55;;;;;;;13.27;7.95;;;;;;;34.08;34.16;99997.84;5087065;28;20032;-21
2021/08/04 09:29:20;;;;;;;14.52;8.57;;;;;;;34.29;33.42;99974.38;5068323;28;20777;-22
2021/08/04 09:31:53;;;;;;;14.48;9.13;;;;;;;34.39;33.15;99993.84;5086851;28;20028;-21
2021/08/04 09:34:40;;;;;;;10.85;7.78;;;;;;;34.56;30.75;99984.06;5087087;28;20074;-21
2021/08/04 09:37:14;;;;;;;15.57;11.00;;;;;;;34.84;31.83;99971.66;5086829;28;20499;-21
2021/08/04 09:39:41;;;;;;;12.77;8.65;;;;;;;34.86;32.53;99974.00;5086744;28;20670;-21
2021/08/04 09:42:07;;;;;;;13.02;7.70;;;;;;;35.21;30.22;99979.78;5086835;28;20020;-21
2021/08/04 09:44:32;;;;;;;12.35;8.23;;;;;;;34.84;33.10;99968.06;5086858;28;20044;-21
2021/08/04 09:47:11;;;;;;;13.27;7.82;;;;;;;35.33;30.67;99955.66;5089691;28;20758;-21
2021/08/04 09:49:36;;;;;;;10.90;7.82;;;;;;;35.15;30.00;99966.69;5090595;28;20114;-21
2021/08/04 09:52:09;;;;;;;12.68;8.63;;;;;;;35.12;31.09;99965.44;5090442;28;20081;-21
2021/08/04 09:54:37;;;;;;;13.35;8.07;;;;;;;35.64;31.78;99956.19;5090466;28;20028;-21
2021/08/04 09:57:02;;;;;;;12.93;8.02;;;;;;;35.63;30.98;99951.81;5090441;28;20031;-21
2021/08/04 09:59:28;;;;;;;13.07;7.78;;;;;;;35.99;30.56;99945.19;5090571;28;20028;-21
2021/08/04 10:01:56;;;;;;;11.27;8.02;;;;;;;35.53;30.40;99945.06;5090446;28;20032;-21
2021/08/04 10:04:21;;;;;;;13.98;8.13;;;;;;;35.46;30.00;99937.50;5090481;28;20032;-21
2021/08/04 10:06:47;;;;;;;11.98;7.97;;;;;;;35.08;30.48;99942.47;5090463;28;20061;-21
2021/08/04 10:09:17;;;;;;;10.95;7.60;;;;;;;34.99;30.04;99933.72;5090220;28;20066;-21
2021/08/04 10:11:47;;;;;;;13.05;8.80;;;;;;;35.36;30.99;99924.41;5090408;28;20128;-21
2021/08/04 10:14:16;;;;;;;11.13;8.10;;;;;;;35.57;29.52;99918.94;5089986;28;20039;-21
2021/08/04 10:16:41;;;;;;;15.50;8.30;;;;;;;35.58;29.10;99926.06;5072454;28;20027;-21
2021/08/04 10:19:07;;;;;;;11.90;8.07;;;;;;;35.64;29.15;99903.50;5089952;28;20036;-21
2021/08/04 10:21:33;;;;;;;14.25;8.02;;;;;;;35.81;29.39;99913.84;5090104;28;20032;-21
2021/08/04 10:23:59;;;;;;;11.50;7.45;;;;;;;36.49;29.03;99921.38;5072145;28;20446;-21
2021/08/04 10:26:25;;;;;;;14.17;7.30;;;;;;;36.39;28.92;99896.03;5090123;28;20039;-21
2021/08/04 10:28:57;;;;;;;12.73;7.18;;;;;;;36.43;29.85;99911.88;5089712;28;20062;-21
2021/08/04 10:31:23;;;;;;;12.23;7.47;;;;;;;36.69;28.44;99911.47;5089979;28;20107;-21
2021/08/04 10:33:48;;;;;;;14.40;8.07;;;;;;;36.48;29.15;99903.16;5090138;28;20031;-21
2021/08/04 10:36:15;;;;;;;9.88;7.00;;;;;;;36.48;28.00;99908.72;5089962;28;20426;-21
2021/08/04 10:38:43;;;;;;;13.77;7.35;;;;;;;36.62;27.93;99914.25;5089763;28;20043;-21
2021/08/04 10:41:23;;;;;;;14.15;7.72;;;;;;;36.56;28.75;99879.72;5089215;28;20390;-21
2021/08/04 10:43:58;;;;;;;11.75;6.88;;;;;;;36.69;28.45;99897.56;5089757;28;20111;-21
2021/08/04 10:46:29;;;;;;;11.27;6.60;;;;;;;36.85;25.64;99893.56;5088468;28;20040;-21
2021/08/04 10:49:04;;;;;;;9.75;6.43;;;;;;;37.06;25.64;99898.25;5089809;28;20040;-21
2021/08/04 10:51:43;;;;;;;12.20;6.13;;;;;;;37.44;24.54;99885.38;5089594;28;20111;-21
2021/08/04 10:54:15;;;;;;;13.77;6.88;;;;;;;37.86;23.30;99874.34;5089618;28;20067;-21
2021/08/04 10:56:43;;;;;;;12.73;6.25;;;;;;;37.99;25.68;99878.25;5088852;28;20028;-21
2021/08/04 10:59:09;;;;;;;13.18;5.82;;;;;;;38.11;23.60;99872.19;5088561;28;20135;-21
2021/08/04 11:01:38;;;;;;;13.73;5.68;;;;;;;37.50;23.19;99867.03;5089357;28;20119;-21
2021/08/04 11:04:07;;;;;;;11.30;5.78;;;;;;;38.00;22.61;99869.47;5089270;28;20111;-21
2021/08/04 11:06:33;;;;;;;11.93;5.05;;;;;;;38.07;21.36;99862.28;5089314;28;20056;-21
2021/08/04 11:09:17;;;;;;;15.93;6.15;;;;;;;37.92;22.55;99858.81;5088816;28;20099;-21
2021/08/04 11:11:52;;;;;;;15.32;6.50;;;;;;;37.86;22.08;99866.78;5089194;28;20027;-21
2021/08/04 11:14:36;;;;;;;14.05;5.32;;;;;;;38.36;20.64;99860.81;5089094;28;20480;-21